createdAt,value
2019-04-05T00:02:07.194Z,13.68
2019-04-05T00:04:38.236Z,14.07
2019-04-05T00:07:07.746Z,14.85
2019-04-05T00:09:40.467Z,12.90
2019-04-05T00:12:09.925Z,14.25
2019-04-05T00:14:39.310Z,13.58
2019-04-05T00:17:08.880Z,14.60
2019-04-05T00:19:38.336Z,15.50
2019-04-05T00:22:07.920Z,15.18
2019-04-05T00:24:37.542Z,14.55
2019-04-05T00:27:07.375Z,13.95
2019-04-05T00:29:40.750Z,13.88
2019-04-05T00:32:10.354Z,14.58
2019-04-05T00:34:40.100Z,13.55
2019-04-05T00:37:11.092Z,13.90
2019-04-05T00:39:40.670Z,13.32
2019-04-05T00:42:10.303Z,14.53
2019-04-05T00:44:40.193Z,12.98
2019-04-05T00:47:09.960Z,11.83
2019-04-05T00:49:39.404Z,12.20
2019-04-05T00:52:09.007Z,12.63
2019-04-05T00:54:39.565Z,11.60
2019-04-05T00:57:10.773Z,11.63
2019-04-05T00:59:41.817Z,11.90
2019-04-05T01:02:11.421Z,12.30
2019-04-05T01:04:41.064Z,11.48
2019-04-05T01:07:10.670Z,11.88
2019-04-05T01:09:43.111Z,12.53
2019-04-05T01:12:13.754Z,12.88
2019-04-05T01:14:44.877Z,11.65
2019-04-05T01:17:24.905Z,12.82
2019-04-05T01:19:51.118Z,11.70
2019-04-05T01:22:23.670Z,11.35
2019-04-05T01:24:53.277Z,11.90
2019-04-05T01:27:24.920Z,10.08
2019-04-05T01:29:54.497Z,10.90
2019-04-05T01:32:26.475Z,10.43
2019-04-05T01:34:55.185Z,10.38
2019-04-05T01:37:25.918Z,11.28
2019-04-05T01:39:58.267Z,10.88
2019-04-05T01:42:27.749Z,11.90
2019-04-05T01:45:00.575Z,11.00
2019-04-05T01:47:32.917Z,10.53
2019-04-05T01:50:02.524Z,11.93
2019-04-05T01:52:32.933Z,12.53
2019-04-05T01:55:02.508Z,13.18
2019-04-05T01:57:32.397Z,13.15
2019-04-05T02:00:01.903Z,14.03
2019-04-05T02:02:33.309Z,13.25
2019-04-05T02:05:03.240Z,13.40
2019-04-05T02:07:37.084Z,13.50
2019-04-05T02:10:10.466Z,13.35
2019-04-05T02:12:40.755Z,12.58
2019-04-05T02:15:12.054Z,14.85
2019-04-05T02:17:41.642Z,13.03
2019-04-05T02:20:11.862Z,13.60
2019-04-05T02:22:41.367Z,12.55
2019-04-05T02:25:12.532Z,13.75
2019-04-05T02:27:42.998Z,13.32
2019-04-05T02:30:12.915Z,12.75
2019-04-05T02:32:42.665Z,12.93
2019-04-05T02:35:12.382Z,12.95
2019-04-05T02:37:42.055Z,14.00
2019-04-05T02:40:17.031Z,14.33
2019-04-05T02:42:50.145Z,13.98
2019-04-05T02:45:22.782Z,12.80
2019-04-05T02:47:55.263Z,12.65
2019-04-05T02:50:27.725Z,13.35
2019-04-05T02:53:00.712Z,13.15
2019-04-05T02:55:31.518Z,13.20
2019-04-05T02:58:03.617Z,14.47
2019-04-05T03:00:33.844Z,13.00
2019-04-05T03:03:05.794Z,13.35
2019-04-05T03:05:36.484Z,13.58
2019-04-05T03:08:06.607Z,11.10
2019-04-05T03:11:01.999Z,14.00
2019-04-05T03:13:33.815Z,13.65
2019-04-05T03:16:06.580Z,13.53
2019-04-05T03:18:41.730Z,12.28
2019-04-05T03:21:12.630Z,13.08
2019-04-05T03:23:46.247Z,14.23
2019-04-05T03:26:19.038Z,13.32
2019-04-05T03:28:51.604Z,13.05
2019-04-05T03:31:25.177Z,13.40
2019-04-05T03:33:54.123Z,13.68
2019-04-05T03:36:24.091Z,13.20
2019-04-05T03:38:53.740Z,13.30
2019-04-05T03:41:25.193Z,12.28
2019-04-05T03:43:55.386Z,12.43
2019-04-05T03:46:25.149Z,11.95
2019-04-05T03:48:54.725Z,12.40
2019-04-05T03:51:26.074Z,15.13
2019-04-05T03:53:57.172Z,14.47
2019-04-05T03:56:27.437Z,16.12
2019-04-05T03:59:03.551Z,14.87
2019-04-05T04:01:35.353Z,15.80
2019-04-05T04:04:05.272Z,15.53
2019-04-05T04:06:35.156Z,16.67
2019-04-05T04:09:06.945Z,15.23
2019-04-05T04:11:38.158Z,15.00
2019-04-05T04:14:09.088Z,15.30
2019-04-05T04:16:38.747Z,16.75
2019-04-05T04:19:08.540Z,15.70
2019-04-05T04:21:53.156Z,14.98
2019-04-05T04:24:22.705Z,15.03
2019-04-05T04:26:55.258Z,14.75
2019-04-05T04:29:26.116Z,14.75
2019-04-05T04:31:56.466Z,14.15
2019-04-05T04:34:27.651Z,13.25
2019-04-05T04:36:57.290Z,13.65
2019-04-05T04:39:28.330Z,12.00
2019-04-05T04:42:04.382Z,11.93
2019-04-05T04:44:35.903Z,12.30
2019-04-05T04:47:08.331Z,13.18
2019-04-05T04:49:38.834Z,12.45
2019-04-05T04:52:08.455Z,11.40
2019-04-05T04:54:38.360Z,11.80
2019-04-05T04:57:10.117Z,11.57
2019-04-05T04:59:41.207Z,12.00
2019-04-05T05:02:12.607Z,11.53
2019-04-05T05:04:47.101Z,11.55
2019-04-05T05:07:15.507Z,11.50
2019-04-05T05:09:45.318Z,10.05
2019-04-05T05:12:16.415Z,10.13
2019-04-05T05:14:48.115Z,10.85
2019-04-05T05:17:17.766Z,10.78
2019-04-05T05:19:47.534Z,12.03
2019-04-05T05:22:17.617Z,10.30
2019-04-05T05:24:47.807Z,10.85
2019-04-05T05:27:17.545Z,12.10
2019-04-05T05:29:47.189Z,13.43
2019-04-05T05:32:16.796Z,13.78
2019-04-05T05:34:46.403Z,13.38
2019-04-05T05:37:16.013Z,13.40
2019-04-05T05:39:45.880Z,14.63
2019-04-05T05:42:15.339Z,13.45
2019-04-05T05:44:48.952Z,12.53
2019-04-05T05:47:18.452Z,13.68
2019-04-05T05:49:47.933Z,13.70
2019-04-05T05:52:18.052Z,14.43
2019-04-05T05:54:48.117Z,13.62
2019-04-05T05:57:18.149Z,13.05
2019-04-05T05:59:47.765Z,13.75
2019-04-05T06:02:17.209Z,12.75
2019-04-05T06:04:46.821Z,11.80
2019-04-05T06:07:16.205Z,11.57
2019-04-05T06:09:47.735Z,12.63
2019-04-05T06:12:19.690Z,12.75
2019-04-05T06:14:48.175Z,13.53
2019-04-05T06:17:17.778Z,11.30
2019-04-05T06:19:47.701Z,10.80
2019-04-05T06:22:17.227Z,12.43
2019-04-05T06:24:46.625Z,11.70
2019-04-05T06:27:16.231Z,11.97
2019-04-05T06:29:46.209Z,12.40
2019-04-05T06:32:15.719Z,11.88
2019-04-05T06:34:45.562Z,11.90
2019-04-05T06:37:15.273Z,12.33
2019-04-05T06:39:44.685Z,14.00
2019-04-05T06:42:14.281Z,13.55
2019-04-05T06:44:43.683Z,14.30
2019-04-05T06:47:13.335Z,15.48
2019-04-05T06:49:42.681Z,13.98
2019-04-05T06:52:12.312Z,14.03
2019-04-05T06:54:42.283Z,12.95
2019-04-05T06:57:12.074Z,12.37
2019-04-05T06:59:41.595Z,12.90
2019-04-05T07:02:11.043Z,12.03
2019-04-05T07:04:40.573Z,11.75
2019-04-05T07:07:10.487Z,11.35
2019-04-05T07:09:39.923Z,12.95
2019-04-05T07:12:09.927Z,13.15
2019-04-05T07:14:39.338Z,13.13
2019-04-05T07:17:10.018Z,12.80
2019-04-05T07:19:39.779Z,14.50
2019-04-05T07:22:09.142Z,14.95
2019-04-05T07:24:40.199Z,13.53
2019-04-05T07:27:09.658Z,14.73
2019-04-05T07:29:39.313Z,14.58
2019-04-05T07:32:08.752Z,12.93
2019-04-05T07:34:38.215Z,11.90
2019-04-05T07:37:07.638Z,11.85
2019-04-05T07:39:37.098Z,11.55
2019-04-05T07:42:07.146Z,11.97
2019-04-05T07:44:36.956Z,13.55
2019-04-05T07:47:06.295Z,12.63
2019-04-05T07:49:35.784Z,11.95
2019-04-05T07:52:05.293Z,12.33
2019-04-05T07:54:35.110Z,12.88
2019-04-05T07:57:06.271Z,13.85
2019-04-05T07:59:35.795Z,10.35
2019-04-05T08:02:08.561Z,11.25
2019-04-05T08:04:38.161Z,11.03
2019-04-05T08:07:08.280Z,11.48
2019-04-05T08:09:38.572Z,10.95
2019-04-05T08:12:08.172Z,9.60
2019-04-05T08:14:39.473Z,9.88
2019-04-05T08:17:09.063Z,9.73
2019-04-05T08:19:38.786Z,10.30
2019-04-05T08:22:08.172Z,10.78
2019-04-05T08:24:37.911Z,10.75
2019-04-05T08:27:07.211Z,10.23
2019-04-05T08:29:36.638Z,11.00
2019-04-05T08:32:14.455Z,9.98
2019-04-05T08:34:39.229Z,9.65
2019-04-05T08:37:08.784Z,10.40
2019-04-05T08:39:39.823Z,10.28
2019-04-05T08:42:10.799Z,8.38
2019-04-05T08:44:40.992Z,8.68
2019-04-05T08:47:10.383Z,8.93
2019-04-05T08:49:39.889Z,9.53
2019-04-05T08:52:11.871Z,9.93
2019-04-05T08:54:41.474Z,9.65
2019-04-05T08:57:11.369Z,9.48
2019-04-05T08:59:40.842Z,7.85
2019-04-05T09:02:10.275Z,7.87
2019-04-05T09:04:39.780Z,9.68
2019-04-05T09:07:09.272Z,8.48
2019-04-05T09:09:38.800Z,8.90
2019-04-05T09:12:08.705Z,8.40
2019-04-05T09:14:38.323Z,9.58
2019-04-05T09:17:07.815Z,9.38
2019-04-05T09:19:37.319Z,10.08
2019-04-05T09:22:08.732Z,9.88
2019-04-05T09:24:39.790Z,8.73
2019-04-05T09:27:09.699Z,8.83
2019-04-05T09:29:40.864Z,9.10
2019-04-05T09:32:10.668Z,9.28
2019-04-05T09:34:40.198Z,9.08
2019-04-05T09:37:09.789Z,8.20
2019-04-05T09:39:39.393Z,9.00
2019-04-05T09:42:09.240Z,9.53
2019-04-05T09:44:42.190Z,9.85
2019-04-05T09:47:11.804Z,7.80
2019-04-05T09:49:41.404Z,8.20
2019-04-05T09:52:11.196Z,9.23
2019-04-05T09:54:40.731Z,9.00
2019-04-05T09:57:10.223Z,8.93
2019-04-05T09:59:39.830Z,10.13
2019-04-05T10:02:10.969Z,9.43
2019-04-05T10:04:40.508Z,11.33
2019-04-05T10:07:12.349Z,9.25
2019-04-05T10:09:42.022Z,10.32
2019-04-05T10:12:11.619Z,10.10
2019-04-05T10:14:41.223Z,8.90
2019-04-05T10:17:13.735Z,10.30
2019-04-05T10:19:49.723Z,9.73
2019-04-05T10:22:17.400Z,9.33
2019-04-05T10:24:46.921Z,9.50
2019-04-05T10:27:16.924Z,10.53
2019-04-05T10:29:49.391Z,9.73
2019-04-05T10:32:17.907Z,10.63
2019-04-05T10:34:47.348Z,8.78
2019-04-05T10:37:16.951Z,9.60
2019-04-05T10:39:46.993Z,10.25
2019-04-05T10:42:28.027Z,8.70
2019-04-05T10:44:57.448Z,10.08
2019-04-05T10:47:27.033Z,10.40
2019-04-05T10:50:03.248Z,10.35
2019-04-05T10:52:29.730Z,11.38
2019-04-05T10:54:59.439Z,10.10
2019-04-05T10:57:31.810Z,10.58
2019-04-05T11:00:04.081Z,11.22
2019-04-05T11:02:33.706Z,10.38
2019-04-05T11:05:03.190Z,9.93
2019-04-05T11:07:35.128Z,10.00
2019-04-05T11:10:08.547Z,10.35
2019-04-05T11:12:38.028Z,10.58
2019-04-05T11:15:10.514Z,9.88
2019-04-05T11:17:42.578Z,9.68
2019-04-05T11:20:21.294Z,11.00
2019-04-05T11:22:49.232Z,10.20
2019-04-05T11:25:20.619Z,10.58
2019-04-05T11:27:51.651Z,10.18
2019-04-05T11:30:42.152Z,10.45
2019-04-05T11:33:12.588Z,11.35
2019-04-05T11:35:45.180Z,10.80
2019-04-05T11:38:15.509Z,9.70
2019-04-05T11:40:47.103Z,9.63
2019-04-05T11:43:16.852Z,9.13
2019-04-05T11:45:46.479Z,9.65
2019-04-05T11:48:17.677Z,10.60
2019-04-05T11:50:47.361Z,10.85
2019-04-05T11:53:16.886Z,10.28
2019-04-05T11:55:47.689Z,10.85
2019-04-05T11:58:17.257Z,11.63
2019-04-05T12:00:51.095Z,10.20
2019-04-05T12:03:26.420Z,10.80
2019-04-05T12:05:55.877Z,10.63
2019-04-05T12:08:25.224Z,9.75
2019-04-05T12:10:56.225Z,9.48
2019-04-05T12:13:28.516Z,10.50
2019-04-05T12:16:01.012Z,9.08
2019-04-05T12:18:32.509Z,11.20
2019-04-05T12:21:05.027Z,10.70
2019-04-05T12:23:33.563Z,11.08
2019-04-05T12:26:04.718Z,11.73
2019-04-05T12:28:34.937Z,11.12
2019-04-05T12:31:06.207Z,10.80
2019-04-05T12:33:35.916Z,11.00
2019-04-05T12:36:05.882Z,10.65
2019-04-05T12:38:35.406Z,11.20
2019-04-05T12:41:05.456Z,11.90
2019-04-05T12:43:35.059Z,11.65
2019-04-05T12:46:05.178Z,11.83
2019-04-05T12:48:34.991Z,11.97
2019-04-05T12:51:05.587Z,11.97
2019-04-05T12:53:36.353Z,11.85
2019-04-05T12:56:06.069Z,12.40
2019-04-05T12:58:35.710Z,13.38
2019-04-05T13:01:08.149Z,12.35
2019-04-05T13:03:37.034Z,13.28
2019-04-05T13:06:06.688Z,13.30
2019-04-05T13:08:36.261Z,13.40
2019-04-05T13:11:05.944Z,12.90
2019-04-05T13:13:35.337Z,13.15
2019-04-05T13:16:09.821Z,13.83
2019-04-05T13:18:36.838Z,13.58
2019-04-05T13:21:15.330Z,12.47
2019-04-05T13:23:39.109Z,13.88
2019-04-05T13:26:11.501Z,13.88
2019-04-05T13:28:39.935Z,14.40
2019-04-05T13:31:09.562Z,13.60
2019-04-05T13:33:40.607Z,13.15
2019-04-05T13:36:10.182Z,14.20
2019-04-05T13:38:53.967Z,13.72
2019-04-05T13:41:15.636Z,13.13
2019-04-05T13:43:45.008Z,13.70
2019-04-05T13:46:21.920Z,15.70
2019-04-05T13:48:47.245Z,14.68
2019-04-05T13:51:27.350Z,14.68
2019-04-05T13:53:47.970Z,14.68
2019-04-05T13:56:20.584Z,13.80
2019-04-05T13:58:49.999Z,13.70
2019-04-05T14:01:21.403Z,14.78
2019-04-05T14:03:51.144Z,14.43
2019-04-05T14:06:20.709Z,14.53
2019-04-05T14:08:50.152Z,14.78
2019-04-05T14:11:22.422Z,13.10
2019-04-05T14:13:51.993Z,14.30
2019-04-05T14:16:21.942Z,13.98
2019-04-05T14:18:53.524Z,15.00
2019-04-05T14:21:25.555Z,14.07
2019-04-05T14:23:54.972Z,13.60
2019-04-05T14:26:24.976Z,14.75
2019-04-05T14:28:54.956Z,14.68
2019-04-05T14:31:27.144Z,15.65
2019-04-05T14:33:58.271Z,14.80
2019-04-05T14:36:30.092Z,13.30
2019-04-05T14:38:58.914Z,15.40
2019-04-05T14:41:34.289Z,15.13
2019-04-05T14:44:03.859Z,14.35
2019-04-05T14:46:33.492Z,14.75
2019-04-05T14:49:03.419Z,14.80
2019-04-05T14:51:33.024Z,15.10
2019-04-05T14:54:02.630Z,14.55
2019-04-05T14:56:32.237Z,13.35
2019-04-05T14:59:01.723Z,14.98
2019-04-05T15:01:31.723Z,14.93
2019-04-05T15:04:01.339Z,16.00
2019-04-05T15:06:30.868Z,13.78
2019-04-05T15:09:02.181Z,14.45
2019-04-05T15:11:32.440Z,14.43
2019-04-05T15:14:01.901Z,15.38
2019-04-05T15:16:31.548Z,14.58
2019-04-05T15:19:01.108Z,14.07
2019-04-05T15:21:30.731Z,18.50
2019-04-05T15:24:00.268Z,16.10
2019-04-05T15:26:29.898Z,17.35
2019-04-05T15:28:59.303Z,15.13
2019-04-05T15:31:34.047Z,16.37
2019-04-05T15:34:03.742Z,18.80
2019-04-05T15:36:33.192Z,19.55
2019-04-05T15:39:03.189Z,19.75
2019-04-05T15:41:32.912Z,19.90
2019-04-05T15:44:06.635Z,18.77
2019-04-05T15:46:39.106Z,18.00
2019-04-05T15:49:08.522Z,17.45
2019-04-05T15:51:37.989Z,19.02
2019-04-05T15:54:07.913Z,17.10
2019-04-05T15:56:37.541Z,16.73
2019-04-05T15:59:06.971Z,16.45
2019-04-05T16:01:39.539Z,17.17
2019-04-05T16:04:10.733Z,16.00
2019-04-05T16:06:40.186Z,18.12
2019-04-05T16:09:14.189Z,17.45
2019-04-05T16:11:43.681Z,16.32
2019-04-05T16:14:14.980Z,16.02
2019-04-05T16:16:44.507Z,17.80
2019-04-05T16:19:14.037Z,18.27
2019-04-05T16:21:45.198Z,17.27
2019-04-05T16:24:14.581Z,19.60
2019-04-05T16:26:44.383Z,18.92
2019-04-05T16:29:13.984Z,17.87
2019-04-05T16:31:45.035Z,18.27
2019-04-05T16:34:14.794Z,18.00
2019-04-05T16:36:44.355Z,16.87
2019-04-05T16:39:15.495Z,19.50
2019-04-05T16:41:44.900Z,18.73
2019-04-05T16:44:16.966Z,17.35
2019-04-05T16:46:46.369Z,18.05
2019-04-05T16:49:15.972Z,16.45
2019-04-05T16:51:45.581Z,18.42
2019-04-05T16:54:15.083Z,17.92
2019-04-05T16:56:44.485Z,18.55
2019-04-05T16:59:14.003Z,18.75
2019-04-05T17:01:43.494Z,17.98
2019-04-05T17:04:13.450Z,18.67
2019-04-05T17:06:45.161Z,18.32
2019-04-05T17:09:14.573Z,15.78
2019-04-05T17:11:44.068Z,19.50
2019-04-05T17:14:15.623Z,17.87
2019-04-05T17:16:46.830Z,18.02
2019-04-05T17:19:16.475Z,18.60
2019-04-05T17:21:45.979Z,20.52
2019-04-05T17:24:15.483Z,19.65
2019-04-05T17:26:46.523Z,20.85
2019-04-05T17:29:18.511Z,20.82
2019-04-05T17:31:47.784Z,19.50
2019-04-05T17:34:17.409Z,21.25
2019-04-05T17:36:46.974Z,20.32
2019-04-05T17:39:16.476Z,22.30
2019-04-05T17:41:46.112Z,22.02
2019-04-05T17:44:19.789Z,20.97
2019-04-05T17:46:48.599Z,21.97
2019-04-05T17:49:21.172Z,21.70
2019-04-05T17:51:50.722Z,21.75
2019-04-05T17:54:21.821Z,21.20
2019-04-05T17:56:51.634Z,22.67
2019-04-05T17:59:22.083Z,20.23
2019-04-05T18:01:51.829Z,19.87
2019-04-05T18:04:21.436Z,22.05
2019-04-05T18:06:51.595Z,21.65
2019-04-05T18:09:21.603Z,21.77
2019-04-05T18:11:53.766Z,20.05
2019-04-05T18:14:25.692Z,18.95
2019-04-05T18:16:55.693Z,21.15
2019-04-05T18:19:25.261Z,21.15
2019-04-05T18:21:54.753Z,19.32
2019-04-05T18:24:24.372Z,21.68
2019-04-05T18:26:54.198Z,21.50
2019-04-05T18:29:23.688Z,19.77
2019-04-05T18:31:52.508Z,21.15
2019-04-05T18:34:40.194Z,21.45
2019-04-05T18:37:11.558Z,21.57
2019-04-05T18:39:42.763Z,19.30
2019-04-05T18:42:15.889Z,21.37
2019-04-05T18:44:45.503Z,21.02
2019-04-05T18:47:15.014Z,21.80
2019-04-05T18:49:44.604Z,20.85
2019-04-05T18:52:14.245Z,20.97
2019-04-05T18:54:43.716Z,19.40
2019-04-05T18:57:14.266Z,22.07
2019-04-05T18:59:44.056Z,21.20
2019-04-05T19:02:13.833Z,19.70
2019-04-05T19:04:43.449Z,21.02
2019-04-05T19:07:15.839Z,20.12
2019-04-05T19:09:46.476Z,21.95
2019-04-05T19:12:16.102Z,22.05
2019-04-05T19:14:45.609Z,21.97
2019-04-05T19:17:23.786Z,22.95
2019-04-05T19:19:47.769Z,21.93
2019-04-05T19:22:18.835Z,23.65
2019-04-05T19:24:48.259Z,22.13
2019-04-05T19:27:17.639Z,21.50
2019-04-05T19:29:47.146Z,23.18
2019-04-05T19:49:58.513Z,24.57
2019-04-05T19:52:28.017Z,25.20
2019-04-05T19:54:57.585Z,25.02
2019-04-05T19:57:27.041Z,26.48
2019-04-05T19:59:56.529Z,26.20
2019-04-05T20:02:26.969Z,23.38
2019-04-05T20:04:56.356Z,26.52
2019-04-05T20:07:25.962Z,28.42
2019-04-05T20:09:55.483Z,26.05
2019-04-05T20:12:25.279Z,26.80
2019-04-05T20:14:55.151Z,25.92
2019-04-05T20:17:24.913Z,25.55
2019-04-05T20:19:54.994Z,28.27
2019-04-05T20:22:24.601Z,25.05
2019-04-05T20:24:54.200Z,27.67
2019-04-05T20:27:23.724Z,25.45
2019-04-05T20:29:53.134Z,25.35
2019-04-05T20:32:25.562Z,26.20
2019-04-05T20:34:53.831Z,23.77
2019-04-05T20:37:23.660Z,23.42
2019-04-05T20:39:53.207Z,24.23
2019-04-05T20:42:22.625Z,26.68
2019-04-05T20:44:52.075Z,23.47
2019-04-05T20:47:21.615Z,23.83
2019-04-05T20:49:51.354Z,22.85
2019-04-05T20:52:20.932Z,22.60
2019-04-05T20:54:50.801Z,23.12
2019-04-05T20:57:20.348Z,23.62
2019-04-05T20:59:50.250Z,22.20
2019-04-05T21:02:20.010Z,24.10
2019-04-05T21:04:49.541Z,23.05
2019-04-05T21:07:25.671Z,22.10
2019-04-05T21:10:03.121Z,22.20
2019-04-05T21:12:27.608Z,21.70
2019-04-05T21:14:57.473Z,20.65
2019-04-05T21:17:26.994Z,24.20
2019-04-05T21:19:56.520Z,22.95
2019-04-05T21:22:26.057Z,22.58
2019-04-05T21:24:55.567Z,22.87
2019-04-05T21:27:28.014Z,21.35
2019-04-05T21:30:00.504Z,21.27
2019-04-05T21:32:31.632Z,22.55
2019-04-05T21:35:01.482Z,23.10
2019-04-05T21:37:30.998Z,23.22
2019-04-05T21:40:00.364Z,23.60
2019-04-05T21:42:31.509Z,24.00
2019-04-05T21:45:02.548Z,23.12
2019-04-05T21:47:33.594Z,24.27
2019-04-05T21:50:03.595Z,26.12
2019-04-05T21:52:33.503Z,24.27
2019-04-05T21:55:03.537Z,26.62
2019-04-05T21:57:33.288Z,27.98
2019-04-05T22:00:03.248Z,27.32
2019-04-05T22:02:32.828Z,26.40
2019-04-05T22:05:02.418Z,26.57
2019-04-05T22:07:35.035Z,26.87
2019-04-05T22:10:06.791Z,26.30
2019-04-05T22:12:36.268Z,27.25
2019-04-05T22:15:06.124Z,26.68
2019-04-05T22:17:38.479Z,26.95
2019-04-05T22:20:08.086Z,26.30
2019-04-05T22:22:37.481Z,26.10
2019-04-05T22:25:07.160Z,25.82
2019-04-05T22:27:36.768Z,25.70
2019-04-05T22:30:07.639Z,26.02
2019-04-05T22:32:37.246Z,26.05
2019-04-05T22:35:08.587Z,27.25
2019-04-05T22:37:37.916Z,28.20
2019-04-05T22:40:09.747Z,26.52
2019-04-05T22:42:39.258Z,23.40
2019-04-05T22:45:08.868Z,24.40
2019-04-05T22:47:38.369Z,23.75
2019-04-05T22:50:08.095Z,25.52
2019-04-05T22:52:37.530Z,24.75
2019-04-05T22:55:11.701Z,23.40
2019-04-05T22:57:38.740Z,23.30
2019-04-05T23:00:08.862Z,23.67
2019-04-05T23:02:38.364Z,24.92
2019-04-05T23:05:09.200Z,21.42
2019-04-05T23:07:40.304Z,24.85
2019-04-05T23:10:10.465Z,24.95
2019-04-05T23:12:39.965Z,26.23
2019-04-05T23:15:09.559Z,26.50
2019-04-05T23:17:40.510Z,27.42
2019-04-05T23:20:11.058Z,25.50
2019-04-05T23:22:40.646Z,27.75
2019-04-05T23:25:21.220Z,25.82
2019-04-05T23:27:41.308Z,26.23
2019-04-05T23:30:11.103Z,27.60
2019-04-05T23:32:40.509Z,27.02
2019-04-05T23:35:10.060Z,30.15
2019-04-05T23:37:39.608Z,27.98
2019-04-05T23:40:09.666Z,28.50
2019-04-05T23:42:39.033Z,28.05
2019-04-05T23:45:08.824Z,28.95
2019-04-05T23:47:38.377Z,29.05
2019-04-05T23:50:09.599Z,30.82
2019-04-05T23:52:41.323Z,27.10
2019-04-05T23:55:14.048Z,29.40
2019-04-05T23:57:43.588Z,28.75
